createdAt,value
2022-12-02T00:00:29.397Z,7.80
2022-12-02T00:02:28.605Z,7.80
2022-12-02T00:04:01.913Z,7.80
2022-12-02T00:05:34.792Z,7.80
2022-12-02T00:07:12.895Z,7.80
2022-12-02T00:08:44.505Z,7.80
2022-12-02T00:10:33.374Z,7.80
2022-12-02T00:12:22.222Z,7.80
2022-12-02T00:13:56.827Z,7.90
2022-12-02T00:15:31.176Z,7.80
2022-12-02T00:17:02.809Z,7.80
2022-12-02T00:18:34.401Z,7.80
2022-12-02T00:20:06.832Z,7.80
2022-12-02T00:21:38.486Z,7.80
2022-12-02T00:23:10.587Z,7.80
2022-12-02T00:24:42.393Z,7.90
2022-12-02T00:26:14.146Z,7.90
2022-12-02T00:27:45.762Z,7.90
2022-12-02T00:29:17.456Z,7.80
2022-12-02T00:30:49.299Z,7.80
2022-12-02T00:32:22.437Z,7.80
2022-12-02T00:33:54.654Z,7.80
2022-12-02T00:35:26.302Z,7.90
2022-12-02T00:36:58.349Z,7.80
2022-12-02T00:38:30.017Z,7.80
2022-12-02T00:40:01.669Z,7.80
2022-12-02T00:41:33.280Z,7.80
2022-12-02T00:43:23.331Z,7.90
2022-12-02T00:45:14.047Z,7.80
2022-12-02T00:46:45.653Z,7.80
2022-12-02T00:48:17.295Z,7.80
2022-12-02T00:49:48.906Z,7.80
2022-12-02T00:51:20.813Z,7.80
2022-12-02T00:52:52.435Z,7.70
2022-12-02T00:54:24.062Z,7.80
2022-12-02T00:55:55.693Z,7.80
2022-12-02T00:57:27.389Z,7.80
2022-12-02T00:58:59.166Z,7.80
2022-12-02T01:00:32.053Z,7.80
2022-12-02T01:02:03.794Z,7.80
2022-12-02T01:03:39.015Z,7.80
2022-12-02T01:05:14.277Z,7.80
2022-12-02T01:06:45.945Z,7.80
2022-12-02T01:08:17.622Z,7.80
2022-12-02T01:09:49.330Z,7.80
2022-12-02T01:11:20.994Z,7.80
2022-12-02T01:12:53.067Z,7.70
2022-12-02T01:14:26.037Z,7.70
2022-12-02T01:15:57.811Z,7.80
2022-12-02T01:17:29.482Z,7.80
2022-12-02T01:19:01.134Z,7.70
2022-12-02T01:20:32.765Z,7.70
2022-12-02T01:22:04.373Z,7.70
2022-12-02T01:23:36.019Z,7.70
2022-12-02T01:25:07.882Z,7.70
2022-12-02T01:26:39.507Z,7.70
2022-12-02T01:28:11.964Z,7.70
2022-12-02T01:29:43.651Z,7.70
2022-12-02T01:31:15.436Z,7.70
2022-12-02T01:32:47.089Z,7.70
2022-12-02T01:34:18.721Z,7.70
2022-12-02T01:35:50.319Z,7.70
2022-12-02T01:37:21.939Z,7.80
2022-12-02T01:38:53.637Z,7.80
2022-12-02T01:40:26.323Z,7.70
2022-12-02T01:41:57.985Z,7.70
2022-12-02T01:43:29.656Z,7.70
2022-12-02T01:45:01.720Z,7.70
2022-12-02T01:46:33.404Z,7.70
2022-12-02T01:48:05.254Z,7.70
2022-12-02T01:49:36.915Z,7.70
2022-12-02T01:51:08.785Z,7.80
2022-12-02T01:52:40.939Z,7.70
2022-12-02T01:54:12.631Z,7.70
2022-12-02T01:55:44.332Z,7.70
2022-12-02T01:57:20.831Z,7.70
2022-12-02T01:58:52.798Z,7.70
2022-12-02T02:00:26.312Z,7.70
2022-12-02T02:01:57.970Z,7.70
2022-12-02T02:03:29.879Z,7.70
2022-12-02T02:05:07.912Z,7.70
2022-12-02T02:06:42.862Z,7.60
2022-12-02T02:08:15.494Z,7.70
2022-12-02T02:09:47.226Z,7.60
2022-12-02T02:11:19.450Z,7.60
2022-12-02T02:12:52.238Z,7.60
2022-12-02T02:14:23.969Z,7.60
2022-12-02T02:15:55.718Z,7.60
2022-12-02T02:17:28.601Z,7.60
2022-12-02T02:19:01.686Z,7.60
2022-12-02T02:20:38.585Z,7.60
2022-12-02T02:22:16.490Z,7.60
2022-12-02T02:23:48.331Z,7.60
2022-12-02T02:25:20.943Z,7.60
2022-12-02T02:26:53.841Z,7.60
2022-12-02T02:28:26.325Z,7.60
2022-12-02T02:29:58.306Z,7.60
2022-12-02T02:31:29.974Z,7.70
2022-12-02T02:33:05.406Z,7.70
2022-12-02T02:34:37.517Z,7.70
2022-12-02T02:36:10.625Z,7.70
2022-12-02T02:37:43.034Z,7.60
2022-12-02T02:39:14.870Z,7.60
2022-12-02T02:40:47.604Z,7.60
2022-12-02T02:42:20.441Z,7.60
2022-12-02T02:43:52.627Z,7.60
2022-12-02T02:45:26.742Z,7.60
2022-12-02T02:46:58.638Z,7.60
2022-12-02T02:48:30.598Z,7.60
2022-12-02T02:50:02.425Z,7.60
2022-12-02T02:51:34.405Z,7.60
2022-12-02T02:53:07.280Z,7.60
2022-12-02T02:54:39.091Z,7.60
2022-12-02T02:56:11.205Z,7.60
2022-12-02T02:57:43.950Z,7.60
2022-12-02T02:59:16.883Z,7.60
2022-12-02T03:00:55.219Z,7.50
2022-12-02T03:02:28.552Z,7.60
2022-12-02T03:04:04.709Z,7.60
2022-12-02T03:05:37.051Z,7.50
2022-12-02T03:07:09.169Z,7.50
2022-12-02T03:08:45.533Z,7.50
2022-12-02T03:10:18.549Z,7.50
2022-12-02T03:11:53.605Z,7.60
2022-12-02T03:13:26.139Z,7.50
2022-12-02T03:14:58.596Z,7.60
2022-12-02T03:16:30.658Z,7.50
2022-12-02T03:18:02.868Z,7.50
2022-12-02T03:19:35.359Z,7.50
2022-12-02T03:21:08.128Z,7.50
2022-12-02T03:22:39.787Z,7.50
2022-12-02T03:24:11.859Z,7.50
2022-12-02T03:25:43.682Z,7.50
2022-12-02T03:27:15.405Z,7.50
2022-12-02T03:28:48.212Z,7.50
2022-12-02T03:30:19.941Z,7.50
2022-12-02T03:31:51.599Z,7.50
2022-12-02T03:33:23.584Z,7.50
2022-12-02T03:34:55.304Z,7.50
2022-12-02T03:36:27.870Z,7.50
2022-12-02T03:37:59.790Z,7.50
2022-12-02T03:39:31.707Z,7.50
2022-12-02T03:41:05.367Z,7.50
2022-12-02T03:42:37.381Z,7.50
2022-12-02T03:44:09.228Z,7.60
2022-12-02T03:45:43.163Z,7.50
2022-12-02T03:47:14.886Z,7.60
2022-12-02T03:48:47.217Z,7.50
2022-12-02T03:50:19.069Z,7.50
2022-12-02T03:51:51.026Z,7.50
2022-12-02T03:53:23.032Z,7.60
2022-12-02T03:54:55.645Z,7.60
2022-12-02T03:56:27.630Z,7.60
2022-12-02T03:58:07.552Z,7.60
2022-12-02T03:59:39.231Z,7.60
2022-12-02T04:01:10.972Z,7.50
2022-12-02T04:02:42.688Z,7.50
2022-12-02T04:04:14.479Z,7.60
2022-12-02T04:05:49.457Z,7.50
2022-12-02T04:07:21.544Z,7.50
2022-12-02T04:08:53.364Z,7.50
2022-12-02T04:10:25.309Z,7.50
2022-12-02T04:11:56.910Z,7.60
2022-12-02T04:13:28.560Z,7.60
2022-12-02T04:15:00.172Z,7.60
2022-12-02T04:16:31.849Z,7.50
2022-12-02T04:18:03.624Z,7.60
2022-12-02T04:19:35.605Z,7.50
2022-12-02T04:21:07.352Z,7.50
2022-12-02T04:22:39.241Z,7.50
2022-12-02T04:24:10.884Z,7.50
2022-12-02T04:25:42.483Z,7.50
2022-12-02T04:27:14.139Z,7.50
2022-12-02T04:28:46.091Z,7.50
2022-12-02T04:30:17.933Z,7.50
2022-12-02T04:31:49.608Z,7.50
2022-12-02T04:33:21.231Z,7.50
2022-12-02T04:34:53.105Z,7.50
2022-12-02T04:36:25.035Z,7.50
2022-12-02T04:37:56.742Z,7.50
2022-12-02T04:39:28.356Z,7.50
2022-12-02T04:40:59.989Z,7.50
2022-12-02T04:42:32.028Z,7.50
2022-12-02T04:44:03.785Z,7.50
2022-12-02T04:45:35.538Z,7.50
2022-12-02T04:47:07.202Z,7.50
2022-12-02T04:48:38.857Z,7.50
2022-12-02T04:50:11.202Z,7.50
2022-12-02T04:51:42.805Z,7.50
2022-12-02T04:53:14.457Z,7.50
2022-12-02T04:54:46.049Z,7.50
2022-12-02T04:56:17.695Z,7.50
2022-12-02T04:57:49.292Z,7.50
2022-12-02T04:59:20.959Z,7.50
2022-12-02T05:00:52.592Z,7.50
2022-12-02T05:02:24.433Z,7.50
2022-12-02T05:03:56.215Z,7.50
2022-12-02T05:05:27.876Z,7.50
2022-12-02T05:06:59.491Z,7.50
2022-12-02T05:08:31.081Z,7.50
2022-12-02T05:10:03.136Z,7.50
2022-12-02T05:11:36.480Z,7.50
2022-12-02T05:13:08.422Z,7.50
2022-12-02T05:14:40.039Z,7.40
2022-12-02T05:16:11.756Z,7.50
2022-12-02T05:17:43.409Z,7.40
2022-12-02T05:19:15.041Z,7.40
2022-12-02T05:20:46.839Z,7.40
2022-12-02T05:22:18.579Z,7.40
2022-12-02T05:23:50.195Z,7.40
2022-12-02T05:25:21.838Z,7.40
2022-12-02T05:26:53.499Z,7.50
2022-12-02T05:28:25.708Z,7.50
2022-12-02T05:29:57.387Z,7.40
2022-12-02T05:31:29.069Z,7.40
2022-12-02T05:33:00.968Z,7.40
2022-12-02T05:34:32.606Z,7.40
2022-12-02T05:36:04.575Z,7.40
2022-12-02T05:37:36.167Z,7.40
2022-12-02T05:39:08.172Z,7.40
2022-12-02T05:40:39.782Z,7.40
2022-12-02T05:42:14.315Z,7.40
2022-12-02T05:43:46.716Z,7.40
2022-12-02T05:45:23.191Z,7.30
2022-12-02T05:47:05.857Z,7.30
2022-12-02T05:48:37.595Z,7.40
2022-12-02T05:50:14.494Z,7.40
2022-12-02T05:51:51.676Z,7.40
2022-12-02T05:53:28.312Z,7.40
2022-12-02T05:55:07.135Z,7.40
2022-12-02T05:56:39.024Z,7.40
2022-12-02T05:58:12.343Z,7.40
2022-12-02T05:59:43.976Z,7.40
2022-12-02T06:01:41.550Z,7.40
2022-12-02T06:03:19.657Z,7.30
2022-12-02T06:04:51.929Z,7.30
2022-12-02T06:06:29.315Z,7.30
2022-12-02T06:08:14.447Z,7.30
2022-12-02T06:09:46.346Z,7.30
2022-12-02T06:11:34.300Z,7.30
2022-12-02T06:13:14.691Z,7.40
2022-12-02T06:14:52.436Z,7.30
2022-12-02T06:16:27.936Z,7.40
2022-12-02T06:17:59.663Z,7.30
2022-12-02T06:19:59.707Z,7.30
2022-12-02T06:21:32.619Z,7.30
2022-12-02T06:23:04.307Z,7.30
2022-12-02T06:24:36.614Z,7.40
2022-12-02T06:26:08.329Z,7.30
2022-12-02T06:27:39.968Z,7.40
2022-12-02T06:29:17.439Z,7.30
2022-12-02T06:30:49.620Z,7.30
2022-12-02T06:32:31.069Z,7.30
2022-12-02T06:34:21.856Z,7.30
2022-12-02T06:35:55.503Z,7.30
2022-12-02T06:37:31.349Z,7.30
2022-12-02T06:39:16.864Z,7.30
2022-12-02T06:40:51.140Z,7.30
2022-12-02T06:42:30.907Z,7.30
2022-12-02T06:44:30.664Z,7.30
2022-12-02T06:46:04.816Z,7.20
2022-12-02T06:47:36.524Z,7.20
2022-12-02T06:49:33.607Z,7.30
2022-12-02T06:51:23.328Z,7.20
2022-12-02T06:53:03.278Z,7.20
2022-12-02T06:54:35.071Z,7.30
2022-12-02T06:56:29.883Z,7.30
2022-12-02T06:58:28.602Z,7.30
2022-12-02T07:00:00.215Z,7.20
2022-12-02T07:01:41.433Z,7.20
2022-12-02T07:03:34.443Z,7.20
2022-12-02T07:05:06.368Z,7.30
2022-12-02T07:06:40.305Z,7.30
2022-12-02T07:08:11.958Z,7.20
2022-12-02T07:09:48.978Z,7.30
2022-12-02T07:11:48.760Z,7.20
2022-12-02T07:13:21.476Z,7.20
2022-12-02T07:15:16.100Z,7.20
2022-12-02T07:16:49.777Z,7.20
2022-12-02T07:18:22.106Z,7.20
2022-12-02T07:20:19.215Z,7.30
2022-12-02T07:21:53.622Z,7.30
2022-12-02T07:23:27.484Z,7.30
2022-12-02T07:25:22.207Z,7.20
2022-12-02T07:26:53.961Z,7.20
2022-12-02T07:28:34.805Z,7.20
2022-12-02T07:30:35.323Z,7.20
2022-12-02T07:32:08.618Z,7.20
2022-12-02T07:33:40.265Z,7.20
2022-12-02T07:35:11.929Z,7.20
2022-12-02T07:36:43.663Z,7.20
2022-12-02T07:38:15.328Z,7.20
2022-12-02T07:39:46.965Z,7.20
2022-12-02T07:41:19.874Z,7.20
2022-12-02T07:42:51.830Z,7.20
2022-12-02T07:44:23.482Z,7.20
2022-12-02T07:45:55.158Z,7.20
2022-12-02T07:47:26.884Z,7.20
2022-12-02T07:48:58.841Z,7.20
2022-12-02T07:50:30.546Z,7.20
2022-12-02T07:52:02.487Z,7.20
2022-12-02T07:53:34.232Z,7.20
2022-12-02T07:55:06.760Z,7.20
2022-12-02T07:56:38.431Z,7.30
2022-12-02T07:58:13.219Z,7.20
2022-12-02T07:59:44.857Z,7.20
2022-12-02T08:01:19.760Z,7.20
2022-12-02T08:02:52.091Z,7.20
2022-12-02T08:04:23.830Z,7.20
2022-12-02T08:05:55.546Z,7.20
2022-12-02T08:07:27.326Z,7.20
2022-12-02T08:08:59.019Z,7.20
2022-12-02T08:10:30.714Z,7.20
2022-12-02T08:12:02.361Z,7.20
2022-12-02T08:13:34.002Z,7.10
2022-12-02T08:15:09.703Z,7.10
2022-12-02T08:16:41.486Z,7.10
2022-12-02T08:18:13.190Z,7.10
2022-12-02T08:19:44.799Z,7.10
2022-12-02T08:21:16.412Z,7.10
2022-12-02T08:22:48.178Z,7.10
2022-12-02T08:24:19.947Z,7.20
2022-12-02T08:25:52.019Z,7.10
2022-12-02T08:27:23.933Z,7.20
2022-12-02T08:28:55.679Z,7.20
2022-12-02T08:30:27.322Z,7.10
2022-12-02T08:31:58.966Z,7.10
2022-12-02T08:33:30.593Z,7.20
2022-12-02T08:35:02.736Z,7.10
2022-12-02T08:36:34.555Z,7.10
2022-12-02T08:38:09.445Z,7.10
2022-12-02T08:39:41.962Z,7.10
2022-12-02T08:41:14.539Z,7.10
2022-12-02T08:42:46.439Z,7.10
2022-12-02T08:44:21.456Z,7.20
2022-12-02T08:45:53.199Z,7.20
2022-12-02T08:47:25.101Z,7.20
2022-12-02T08:48:56.772Z,7.10
2022-12-02T08:50:28.485Z,7.10
2022-12-02T08:52:00.264Z,7.10
2022-12-02T08:53:32.008Z,7.20
2022-12-02T08:55:04.320Z,7.10
2022-12-02T08:56:36.590Z,7.10
2022-12-02T08:58:08.765Z,7.20
2022-12-02T08:59:40.733Z,7.10
2022-12-02T09:01:13.748Z,7.20
2022-12-02T09:02:45.756Z,7.10
2022-12-02T09:04:17.596Z,7.10
2022-12-02T09:05:49.739Z,7.10
2022-12-02T09:07:21.608Z,7.10
2022-12-02T09:08:53.739Z,7.10
2022-12-02T09:10:25.581Z,7.10
2022-12-02T09:11:57.519Z,7.00
2022-12-02T09:13:29.193Z,7.00
2022-12-02T09:15:01.243Z,7.10
2022-12-02T09:16:32.884Z,7.10
2022-12-02T09:18:07.503Z,7.00
2022-12-02T09:19:41.366Z,7.10
2022-12-02T09:21:13.038Z,7.10
2022-12-02T09:22:45.597Z,7.10
2022-12-02T09:24:20.306Z,7.00
2022-12-02T09:25:52.136Z,7.00
2022-12-02T09:27:24.505Z,7.00
2022-12-02T09:28:58.670Z,7.00
2022-12-02T09:30:30.621Z,7.00
2022-12-02T09:32:05.648Z,7.00
2022-12-02T09:33:40.582Z,7.10
2022-12-02T09:35:12.489Z,7.00
2022-12-02T09:36:44.169Z,7.00
2022-12-02T09:38:16.062Z,7.00
2022-12-02T09:39:48.434Z,7.10
2022-12-02T09:41:20.074Z,7.10
2022-12-02T09:42:52.553Z,7.10
2022-12-02T09:44:25.394Z,7.10
2022-12-02T09:46:00.616Z,7.10
2022-12-02T09:47:32.710Z,7.00
2022-12-02T09:49:05.406Z,7.10
2022-12-02T09:50:39.606Z,7.00
2022-12-02T09:52:18.756Z,7.00
2022-12-02T09:53:53.692Z,7.00
2022-12-02T09:55:25.582Z,7.00
2022-12-02T09:56:59.813Z,7.00
2022-12-02T09:58:32.210Z,7.00
2022-12-02T10:00:10.676Z,7.00
2022-12-02T10:01:49.764Z,7.00
2022-12-02T10:03:26.995Z,7.00
2022-12-02T10:05:04.243Z,7.00
2022-12-02T10:06:36.035Z,7.10
2022-12-02T10:08:16.158Z,7.00
2022-12-02T10:09:47.920Z,7.00
2022-12-02T10:11:27.308Z,7.00
2022-12-02T10:13:04.440Z,7.00
2022-12-02T10:14:39.401Z,7.00
2022-12-02T10:16:14.144Z,7.00
2022-12-02T10:17:46.692Z,7.00
2022-12-02T10:19:19.943Z,7.10
2022-12-02T10:20:51.660Z,7.00
2022-12-02T10:22:24.765Z,7.00
2022-12-02T10:24:05.456Z,7.00
2022-12-02T10:25:38.711Z,7.00
2022-12-02T10:27:27.425Z,6.90
2022-12-02T10:29:13.064Z,7.00
2022-12-02T10:31:10.311Z,7.00
2022-12-02T10:32:42.471Z,7.00
2022-12-02T10:34:21.434Z,7.00
2022-12-02T10:35:54.409Z,6.90
2022-12-02T10:37:26.953Z,6.90
2022-12-02T10:39:17.407Z,6.90
2022-12-02T10:40:49.022Z,6.90
2022-12-02T10:42:23.958Z,7.00
2022-12-02T10:44:04.079Z,7.00
2022-12-02T10:45:36.468Z,6.90
2022-12-02T10:47:25.466Z,7.00
2022-12-02T10:49:17.341Z,6.90
2022-12-02T10:50:48.983Z,6.90
2022-12-02T10:52:29.386Z,6.90
2022-12-02T10:54:01.697Z,6.90
2022-12-02T10:55:33.339Z,6.90
2022-12-02T10:57:06.122Z,6.90
2022-12-02T10:58:37.814Z,7.00
2022-12-02T11:00:20.246Z,7.00
2022-12-02T11:01:52.033Z,7.00
2022-12-02T11:03:24.617Z,7.00
2022-12-02T11:04:58.694Z,7.00
2022-12-02T11:06:31.022Z,7.00
2022-12-02T11:08:06.092Z,7.00
2022-12-02T11:09:41.206Z,6.90
2022-12-02T11:11:36.406Z,6.90
2022-12-02T11:13:48.135Z,6.90
2022-12-02T11:15:42.429Z,6.90
2022-12-02T11:17:14.076Z,7.00
2022-12-02T11:19:08.739Z,6.90
2022-12-02T11:20:45.636Z,6.90
2022-12-02T11:22:55.878Z,6.90
2022-12-02T11:24:27.541Z,6.90
2022-12-02T11:26:19.444Z,6.90
2022-12-02T11:28:28.523Z,6.90
2022-12-02T11:30:07.026Z,6.90
2022-12-02T11:31:38.755Z,6.90
2022-12-02T11:33:11.940Z,6.90
2022-12-02T11:35:16.216Z,6.90
2022-12-02T11:36:45.592Z,6.90
2022-12-02T11:38:26.644Z,6.90
2022-12-02T11:40:13.036Z,6.90
2022-12-02T11:41:50.433Z,6.90
2022-12-02T11:43:44.473Z,6.90
2022-12-02T11:45:16.050Z,6.90
2022-12-02T11:46:50.889Z,6.90
2022-12-02T11:48:22.708Z,6.90
2022-12-02T11:49:56.094Z,6.90
2022-12-02T11:51:40.557Z,6.90
2022-12-02T11:53:18.792Z,6.90
2022-12-02T11:55:03.639Z,6.90
2022-12-02T11:56:39.044Z,6.90
2022-12-02T11:58:28.019Z,6.90
2022-12-02T11:59:59.686Z,6.90
2022-12-02T12:01:32.130Z,6.90
2022-12-02T12:03:16.013Z,6.90
2022-12-02T12:04:59.718Z,7.00
2022-12-02T12:06:34.790Z,6.90
2022-12-02T12:08:06.708Z,6.90
2022-12-02T12:09:38.702Z,6.90
2022-12-02T12:11:16.470Z,6.90
2022-12-02T12:13:19.954Z,7.00
2022-12-02T12:15:00.903Z,6.90
2022-12-02T12:16:38.913Z,6.90
2022-12-02T12:18:10.691Z,6.90
2022-12-02T12:19:42.374Z,6.90
2022-12-02T12:21:35.220Z,6.90
2022-12-02T12:23:27.660Z,6.90
2022-12-02T12:25:32.395Z,6.90
2022-12-02T12:27:04.115Z,6.80
2022-12-02T12:28:37.855Z,6.90
2022-12-02T12:30:12.623Z,6.90
2022-12-02T12:31:44.549Z,6.80
2022-12-02T12:33:16.947Z,6.90
2022-12-02T12:34:48.590Z,6.90
2022-12-02T12:36:20.251Z,6.90
2022-12-02T12:37:52.072Z,6.90
2022-12-02T12:39:24.587Z,6.90
2022-12-02T12:40:57.130Z,6.80
2022-12-02T12:42:28.802Z,6.80
2022-12-02T12:44:00.574Z,6.80
2022-12-02T12:45:32.163Z,6.90
2022-12-02T12:47:05.540Z,6.90
2022-12-02T12:48:37.221Z,6.80
2022-12-02T12:50:09.132Z,6.90
2022-12-02T12:51:40.797Z,6.80
2022-12-02T12:53:12.571Z,6.80
2022-12-02T12:54:50.484Z,6.80
2022-12-02T12:56:22.629Z,6.80
2022-12-02T12:57:54.283Z,6.80
2022-12-02T12:59:25.928Z,6.80
2022-12-02T13:00:57.584Z,6.90
2022-12-02T13:02:29.301Z,6.90
2022-12-02T13:04:01.037Z,6.80
2022-12-02T13:05:32.747Z,6.90
2022-12-02T13:07:04.363Z,6.90
2022-12-02T13:08:36.284Z,6.90
2022-12-02T13:10:08.750Z,6.90
2022-12-02T13:11:41.435Z,6.90
2022-12-02T13:13:13.424Z,6.90
2022-12-02T13:14:45.056Z,6.80
2022-12-02T13:16:16.796Z,6.80
2022-12-02T13:17:49.449Z,6.80
2022-12-02T13:19:21.383Z,6.80
2022-12-02T13:20:53.086Z,6.80
2022-12-02T13:22:24.791Z,6.80
2022-12-02T13:23:56.477Z,6.80
2022-12-02T13:25:28.104Z,6.80
2022-12-02T13:26:59.756Z,6.80
2022-12-02T13:28:31.433Z,6.80
2022-12-02T13:30:04.645Z,6.80
2022-12-02T13:31:36.655Z,6.80
2022-12-02T13:33:08.444Z,6.80
2022-12-02T13:34:40.058Z,6.70
2022-12-02T13:36:11.689Z,6.70
2022-12-02T13:37:43.765Z,6.70
2022-12-02T13:39:15.496Z,6.80
2022-12-02T13:40:51.951Z,6.80
2022-12-02T13:42:24.098Z,6.80
2022-12-02T13:43:55.766Z,6.80
2022-12-02T13:45:27.971Z,6.80
2022-12-02T13:46:59.630Z,6.80
2022-12-02T13:48:31.355Z,6.80
2022-12-02T13:50:03.576Z,6.80
2022-12-02T13:51:35.209Z,6.80
2022-12-02T13:53:07.127Z,6.80
2022-12-02T13:54:38.769Z,6.80
2022-12-02T13:56:10.418Z,6.80
2022-12-02T13:57:42.522Z,6.80
2022-12-02T13:59:14.169Z,6.80
2022-12-02T14:00:46.014Z,6.70
2022-12-02T14:02:17.625Z,6.70
2022-12-02T14:03:50.102Z,6.70
2022-12-02T14:05:21.959Z,6.70
2022-12-02T14:06:53.667Z,6.80
2022-12-02T14:08:25.278Z,6.80
2022-12-02T14:09:56.888Z,6.70
2022-12-02T14:11:28.610Z,6.70
2022-12-02T14:13:00.351Z,6.70
2022-12-02T14:14:31.960Z,6.70
2022-12-02T14:16:03.678Z,6.70
2022-12-02T14:17:35.430Z,6.70
2022-12-02T14:19:07.683Z,6.70
2022-12-02T14:20:39.438Z,6.70
2022-12-02T14:22:11.165Z,6.70
2022-12-02T14:23:43.051Z,6.70
2022-12-02T14:25:15.386Z,6.80
2022-12-02T14:26:49.581Z,6.70
2022-12-02T14:28:21.354Z,6.70
2022-12-02T14:29:53.349Z,6.70
2022-12-02T14:31:26.895Z,6.70
2022-12-02T14:33:02.762Z,6.70
2022-12-02T14:34:35.886Z,6.70
2022-12-02T14:36:08.009Z,6.70
2022-12-02T14:37:39.883Z,6.70
2022-12-02T14:39:12.362Z,6.70
2022-12-02T14:40:44.630Z,6.70
2022-12-02T14:42:16.493Z,6.70
2022-12-02T14:43:48.545Z,6.80
2022-12-02T14:45:20.469Z,6.80
2022-12-02T14:46:52.278Z,6.70
2022-12-02T14:48:28.195Z,6.70
2022-12-02T14:50:01.122Z,6.70
2022-12-02T14:51:34.037Z,6.80
2022-12-02T14:53:07.370Z,6.70
2022-12-02T14:54:42.444Z,6.70
2022-12-02T14:56:15.040Z,6.70
2022-12-02T14:57:47.424Z,6.70
2022-12-02T14:59:22.100Z,6.70
2022-12-02T15:00:53.961Z,6.70
2022-12-02T15:02:26.246Z,6.70
2022-12-02T15:03:59.353Z,6.70
2022-12-02T15:05:31.849Z,6.70
2022-12-02T15:07:04.403Z,6.60
2022-12-02T15:08:36.658Z,6.70
2022-12-02T15:10:09.058Z,6.70
2022-12-02T15:11:41.502Z,6.60
2022-12-02T15:13:14.314Z,6.70
2022-12-02T15:14:46.852Z,6.70
2022-12-02T15:16:19.378Z,6.70
2022-12-02T15:17:51.524Z,6.70
2022-12-02T15:19:26.497Z,6.70
2022-12-02T15:21:01.073Z,6.70
2022-12-02T15:22:34.539Z,6.70
2022-12-02T15:24:09.387Z,6.60
2022-12-02T15:25:43.697Z,6.60
2022-12-02T15:27:15.768Z,6.60
2022-12-02T15:28:48.236Z,6.60
2022-12-02T15:30:20.301Z,6.70
2022-12-02T15:31:52.112Z,6.70
2022-12-02T15:33:23.729Z,6.70
2022-12-02T15:34:55.494Z,6.60
2022-12-02T15:36:27.106Z,6.60
2022-12-02T15:37:58.810Z,6.60
2022-12-02T15:39:30.534Z,6.60
2022-12-02T15:41:02.224Z,6.60
2022-12-02T15:42:33.825Z,6.60
2022-12-02T15:44:08.697Z,6.60
2022-12-02T15:45:40.562Z,6.60
2022-12-02T15:47:12.306Z,6.60
2022-12-02T15:48:44.087Z,6.60
2022-12-02T15:50:18.993Z,6.60
2022-12-02T15:51:50.689Z,6.60
2022-12-02T15:53:23.607Z,6.50
2022-12-02T15:54:55.383Z,6.50
2022-12-02T15:56:29.835Z,6.50
2022-12-02T15:58:01.658Z,6.50
2022-12-02T15:59:34.504Z,6.50
2022-12-02T16:01:06.516Z,6.60
2022-12-02T16:02:38.694Z,6.60
2022-12-02T16:04:10.556Z,6.60
2022-12-02T16:05:42.439Z,6.60
2022-12-02T16:07:15.160Z,6.60
2022-12-02T16:08:52.176Z,6.60
2022-12-02T16:10:27.073Z,6.60
2022-12-02T16:11:58.912Z,6.60
2022-12-02T16:13:30.676Z,6.60
2022-12-02T16:15:03.200Z,6.60
2022-12-02T16:16:35.926Z,6.60
2022-12-02T16:18:10.724Z,6.60
2022-12-02T16:19:42.439Z,6.60
2022-12-02T16:21:14.179Z,6.60
2022-12-02T16:22:46.136Z,6.60
2022-12-02T16:24:23.043Z,6.60
2022-12-02T16:25:54.739Z,6.60
2022-12-02T16:27:26.398Z,6.50
2022-12-02T16:28:58.314Z,6.50
2022-12-02T16:30:30.026Z,6.50
2022-12-02T16:32:02.058Z,6.50
2022-12-02T16:33:33.840Z,6.50
2022-12-02T16:35:05.945Z,6.50
2022-12-02T16:36:37.996Z,6.50
2022-12-02T16:38:12.569Z,6.50
2022-12-02T16:39:44.330Z,6.50
2022-12-02T16:41:16.147Z,6.50
2022-12-02T16:42:47.903Z,6.60
2022-12-02T16:44:19.748Z,6.60
2022-12-02T16:45:51.745Z,6.60
2022-12-02T16:47:23.866Z,6.60
2022-12-02T16:48:55.626Z,6.50
2022-12-02T16:50:27.461Z,6.60
2022-12-02T16:51:59.293Z,6.60
2022-12-02T16:53:31.056Z,6.60
2022-12-02T16:55:07.186Z,6.60
2022-12-02T16:56:38.878Z,6.60
2022-12-02T16:58:10.753Z,6.60
2022-12-02T16:59:42.779Z,6.60
2022-12-02T17:01:14.470Z,6.60
2022-12-02T17:02:46.305Z,6.60
2022-12-02T17:04:18.052Z,6.50
2022-12-02T17:05:49.809Z,6.50
2022-12-02T17:07:21.553Z,6.50
2022-12-02T17:08:55.826Z,6.50
2022-12-02T17:10:28.150Z,6.50
2022-12-02T17:11:59.933Z,6.50
2022-12-02T17:13:32.305Z,6.50
2022-12-02T17:15:04.383Z,6.50
2022-12-02T17:16:36.195Z,6.50
2022-12-02T17:18:08.196Z,6.50
2022-12-02T17:19:40.066Z,6.50
2022-12-02T17:21:11.749Z,6.50
2022-12-02T17:22:47.470Z,6.50
2022-12-02T17:24:19.245Z,6.50
2022-12-02T17:25:53.803Z,6.50
2022-12-02T17:27:25.712Z,6.50
2022-12-02T17:28:57.754Z,6.50
2022-12-02T17:30:30.235Z,6.50
2022-12-02T17:32:02.190Z,6.50
2022-12-02T17:33:33.859Z,6.50
2022-12-02T17:35:06.431Z,6.50
2022-12-02T17:36:38.125Z,6.40
2022-12-02T17:38:09.891Z,6.40
2022-12-02T17:39:41.537Z,6.40
2022-12-02T17:41:13.191Z,6.40
2022-12-02T17:42:44.826Z,6.40
2022-12-02T17:44:17.026Z,6.40
2022-12-02T17:45:48.846Z,6.40
2022-12-02T17:47:20.545Z,6.40
2022-12-02T17:48:52.259Z,6.40
2022-12-02T17:50:24.182Z,6.30
2022-12-02T17:52:18.594Z,6.30
2022-12-02T17:53:47.614Z,6.30
2022-12-02T17:55:20.262Z,6.30
2022-12-02T17:56:51.952Z,6.20
2022-12-02T17:58:23.762Z,6.30
2022-12-02T17:59:55.456Z,6.30
2022-12-02T18:01:27.468Z,6.30
2022-12-02T18:02:59.146Z,6.30
2022-12-02T18:04:30.975Z,6.40
2022-12-02T18:06:04.181Z,6.40
2022-12-02T18:07:35.980Z,6.30
2022-12-02T18:09:07.661Z,6.30
2022-12-02T18:10:40.071Z,6.40
2022-12-02T18:12:11.967Z,6.30
2022-12-02T18:13:44.558Z,6.30
2022-12-02T18:15:16.587Z,6.40
2022-12-02T18:16:48.361Z,6.40
2022-12-02T18:18:20.187Z,6.40
2022-12-02T18:19:53.960Z,6.40
2022-12-02T18:21:26.090Z,6.40
2022-12-02T18:22:58.171Z,6.30
2022-12-02T18:24:30.030Z,6.30
2022-12-02T18:26:01.829Z,6.20
2022-12-02T18:27:34.375Z,6.30
2022-12-02T18:29:06.491Z,6.20
2022-12-02T18:30:38.822Z,6.20
2022-12-02T18:32:10.725Z,6.30
2022-12-02T18:33:42.732Z,6.30
2022-12-02T18:35:16.127Z,6.30
2022-12-02T18:36:50.448Z,6.20
2022-12-02T18:38:22.347Z,6.30
2022-12-02T18:39:55.121Z,6.30
2022-12-02T18:41:27.189Z,6.20
2022-12-02T18:42:58.954Z,6.20
2022-12-02T18:44:30.853Z,6.20
2022-12-02T18:46:02.686Z,6.20
2022-12-02T18:47:34.884Z,6.30
2022-12-02T18:49:06.801Z,6.30
2022-12-02T18:50:41.442Z,6.30
2022-12-02T18:52:13.614Z,6.30
2022-12-02T18:53:48.560Z,6.20
2022-12-02T18:55:20.412Z,6.20
2022-12-02T18:56:52.133Z,6.30
2022-12-02T18:58:24.241Z,6.30
2022-12-02T18:59:56.766Z,6.30
2022-12-02T19:01:33.771Z,6.30
2022-12-02T19:03:09.440Z,6.30
2022-12-02T19:04:41.700Z,6.30
2022-12-02T19:06:13.467Z,6.30
2022-12-02T19:07:45.526Z,6.30
2022-12-02T19:09:20.695Z,6.30
2022-12-02T19:10:54.007Z,6.30
2022-12-02T19:12:25.879Z,6.30
2022-12-02T19:13:57.874Z,6.30
2022-12-02T19:15:32.060Z,6.30
2022-12-02T19:17:06.261Z,6.30
2022-12-02T19:18:38.398Z,6.30
2022-12-02T19:20:10.908Z,6.30
2022-12-02T19:21:42.577Z,6.20
2022-12-02T19:23:14.374Z,6.20
2022-12-02T19:24:46.151Z,6.20
2022-12-02T19:26:17.839Z,6.20
2022-12-02T19:27:57.354Z,6.20
2022-12-02T19:29:29.701Z,6.20
2022-12-02T19:31:01.345Z,6.20
2022-12-02T19:32:33.048Z,6.20
2022-12-02T19:34:04.704Z,6.20
2022-12-02T19:35:37.353Z,6.20
2022-12-02T19:37:09.184Z,6.20
2022-12-02T19:38:40.858Z,6.30
2022-12-02T19:40:12.823Z,6.30
2022-12-02T19:41:44.473Z,6.30
2022-12-02T19:43:16.510Z,6.30
2022-12-02T19:44:48.286Z,6.30
2022-12-02T19:46:20.167Z,6.30
2022-12-02T19:47:52.956Z,6.30
2022-12-02T19:49:24.589Z,6.30
2022-12-02T19:50:56.333Z,6.30
2022-12-02T19:52:28.174Z,6.30
2022-12-02T19:53:59.847Z,6.20
2022-12-02T19:55:31.576Z,6.20
2022-12-02T19:57:03.383Z,6.20
2022-12-02T19:58:35.067Z,6.20
2022-12-02T20:00:09.923Z,6.20
2022-12-02T20:01:44.415Z,6.20
2022-12-02T20:03:16.248Z,6.20
2022-12-02T20:04:47.896Z,6.20
2022-12-02T20:06:19.537Z,6.20
2022-12-02T20:07:51.416Z,6.20
2022-12-02T20:09:25.978Z,6.30
2022-12-02T20:10:57.880Z,6.30
2022-12-02T20:12:29.564Z,6.30
2022-12-02T20:14:01.172Z,6.20
2022-12-02T20:15:32.850Z,6.20
2022-12-02T20:17:04.588Z,6.30
2022-12-02T20:18:36.311Z,6.20
2022-12-02T20:20:11.134Z,6.20
2022-12-02T20:21:42.943Z,6.20
2022-12-02T20:23:14.560Z,6.20
2022-12-02T20:24:46.238Z,6.20
2022-12-02T20:26:18.492Z,6.20
2022-12-02T20:27:54.380Z,6.20
2022-12-02T20:29:27.494Z,6.20
2022-12-02T20:30:59.246Z,6.20
2022-12-02T20:32:31.725Z,6.20
2022-12-02T20:34:03.513Z,6.20
2022-12-02T20:35:35.123Z,6.20
2022-12-02T20:37:08.088Z,6.20
2022-12-02T20:38:39.734Z,6.20
2022-12-02T20:40:13.676Z,6.20
2022-12-02T20:41:45.489Z,6.20
2022-12-02T20:43:17.332Z,6.20
2022-12-02T20:44:52.654Z,6.20
2022-12-02T20:46:25.051Z,6.10
2022-12-02T20:47:56.879Z,6.10
2022-12-02T20:49:28.628Z,6.10
2022-12-02T20:51:00.229Z,6.10